sensor_id;sensor_type;location;lat;lon;timestamp;temperature;humidity
52295;DHT22;38243;53.212;6.574;2023-03-01T00:01:25;16.80;69.30
52295;DHT22;38243;53.212;6.574;2023-03-01T00:03:52;16.80;69.40
52295;DHT22;38243;53.212;6.574;2023-03-01T00:06:19;16.80;69.40
52295;DHT22;38243;53.212;6.574;2023-03-01T00:08:45;16.80;69.40
52295;DHT22;38243;53.212;6.574;2023-03-01T00:11:17;16.90;69.50
52295;DHT22;38243;53.212;6.574;2023-03-01T00:13:44;16.80;69.40
52295;DHT22;38243;53.212;6.574;2023-03-01T00:16:16;16.80;69.40
52295;DHT22;38243;53.212;6.574;2023-03-01T00:18:43;16.80;69.50
52295;DHT22;38243;53.212;6.574;2023-03-01T00:21:09;16.70;69.40
52295;DHT22;38243;53.212;6.574;2023-03-01T00:23:36;16.80;69.50
52295;DHT22;38243;53.212;6.574;2023-03-01T00:26:05;16.80;69.50
52295;DHT22;38243;53.212;6.574;2023-03-01T00:28:31;16.80;69.50
52295;DHT22;38243;53.212;6.574;2023-03-01T00:31:13;16.80;69.50
52295;DHT22;38243;53.212;6.574;2023-03-01T00:33:39;16.80;69.60
52295;DHT22;38243;53.212;6.574;2023-03-01T00:36:06;16.70;69.50
52295;DHT22;38243;53.212;6.574;2023-03-01T00:38:44;16.70;69.50
52295;DHT22;38243;53.212;6.574;2023-03-01T00:41:13;16.70;69.50
52295;DHT22;38243;53.212;6.574;2023-03-01T00:43:39;16.70;69.50
52295;DHT22;38243;53.212;6.574;2023-03-01T00:46:10;16.70;69.60
52295;DHT22;38243;53.212;6.574;2023-03-01T00:48:36;16.70;69.60
52295;DHT22;38243;53.212;6.574;2023-03-01T00:51:16;16.70;69.60
52295;DHT22;38243;53.212;6.574;2023-03-01T00:53:43;16.70;69.70
52295;DHT22;38243;53.212;6.574;2023-03-01T00:56:11;16.70;69.60
52295;DHT22;38243;53.212;6.574;2023-03-01T00:58:37;16.70;69.60
52295;DHT22;38243;53.212;6.574;2023-03-01T01:01:11;16.70;69.70
52295;DHT22;38243;53.212;6.574;2023-03-01T01:03:51;16.70;69.70
52295;DHT22;38243;53.212;6.574;2023-03-01T01:06:28;16.70;69.60
52295;DHT22;38243;53.212;6.574;2023-03-01T01:08:54;16.70;69.70
52295;DHT22;38243;53.212;6.574;2023-03-01T01:11:22;16.70;69.70
52295;DHT22;38243;53.212;6.574;2023-03-01T01:13:49;16.60;69.60
52295;DHT22;38243;53.212;6.574;2023-03-01T01:16:16;16.60;69.60
52295;DHT22;38243;53.212;6.574;2023-03-01T01:18:42;16.60;69.70
52295;DHT22;38243;53.212;6.574;2023-03-01T01:21:11;16.60;69.60
52295;DHT22;38243;53.212;6.574;2023-03-01T01:23:38;16.60;69.70
52295;DHT22;38243;53.212;6.574;2023-03-01T01:26:15;16.60;69.70
52295;DHT22;38243;53.212;6.574;2023-03-01T01:28:41;16.60;69.70
52295;DHT22;38243;53.212;6.574;2023-03-01T01:31:07;16.60;69.70
52295;DHT22;38243;53.212;6.574;2023-03-01T01:33:33;16.60;69.70
52295;DHT22;38243;53.212;6.574;2023-03-01T01:35:59;16.70;69.70
52295;DHT22;38243;53.212;6.574;2023-03-01T01:38:25;16.60;69.80
52295;DHT22;38243;53.212;6.574;2023-03-01T01:40:51;16.60;69.80
52295;DHT22;38243;53.212;6.574;2023-03-01T01:43:30;16.60;69.80
52295;DHT22;38243;53.212;6.574;2023-03-01T01:46:14;16.60;69.80
52295;DHT22;38243;53.212;6.574;2023-03-01T01:48:43;16.60;69.80
52295;DHT22;38243;53.212;6.574;2023-03-01T01:51:15;16.60;69.80
52295;DHT22;38243;53.212;6.574;2023-03-01T01:53:44;16.50;69.80
52295;DHT22;38243;53.212;6.574;2023-03-01T01:56:13;16.50;69.70
52295;DHT22;38243;53.212;6.574;2023-03-01T01:58:42;16.60;69.80
52295;DHT22;38243;53.212;6.574;2023-03-01T02:01:09;16.50;69.80
52295;DHT22;38243;53.212;6.574;2023-03-01T02:03:38;16.50;69.80
52295;DHT22;38243;53.212;6.574;2023-03-01T02:06:29;16.50;69.80
52295;DHT22;38243;53.212;6.574;2023-03-01T02:09:06;16.50;69.80
52295;DHT22;38243;53.212;6.574;2023-03-01T02:11:33;16.50;69.80
52295;DHT22;38243;53.212;6.574;2023-03-01T02:13:59;16.50;69.80
52295;DHT22;38243;53.212;6.574;2023-03-01T02:16:26;16.50;69.80
52295;DHT22;38243;53.212;6.574;2023-03-01T02:18:52;16.50;69.80
52295;DHT22;38243;53.212;6.574;2023-03-01T02:21:35;16.50;69.80
52295;DHT22;38243;53.212;6.574;2023-03-01T02:26:56;16.50;69.90
52295;DHT22;38243;53.212;6.574;2023-03-01T02:29:23;16.50;69.90
52295;DHT22;38243;53.212;6.574;2023-03-01T02:31:51;16.50;70.00
52295;DHT22;38243;53.212;6.574;2023-03-01T02:34:23;16.50;70.60
52295;DHT22;38243;53.212;6.574;2023-03-01T02:36:56;16.40;69.90
52295;DHT22;38243;53.212;6.574;2023-03-01T02:39:48;16.40;69.90
52295;DHT22;38243;53.212;6.574;2023-03-01T02:42:22;16.40;69.90
52295;DHT22;38243;53.212;6.574;2023-03-01T02:44:49;16.40;69.90
52295;DHT22;38243;53.212;6.574;2023-03-01T02:47:15;16.40;69.90
52295;DHT22;38243;53.212;6.574;2023-03-01T02:49:41;16.40;70.00
52295;DHT22;38243;53.212;6.574;2023-03-01T02:55:17;16.40;69.90
52295;DHT22;38243;53.212;6.574;2023-03-01T02:57:45;16.40;69.90
52295;DHT22;38243;53.212;6.574;2023-03-01T03:00:18;16.40;69.90
52295;DHT22;38243;53.212;6.574;2023-03-01T03:02:49;16.40;69.90
52295;DHT22;38243;53.212;6.574;2023-03-01T03:05:36;16.40;69.90
52295;DHT22;38243;53.212;6.574;2023-03-01T03:08:03;16.40;70.00
52295;DHT22;38243;53.212;6.574;2023-03-01T03:10:32;16.40;70.00
52295;DHT22;38243;53.212;6.574;2023-03-01T03:13:10;16.40;70.00
52295;DHT22;38243;53.212;6.574;2023-03-01T03:15:36;16.30;70.00
52295;DHT22;38243;53.212;6.574;2023-03-01T03:18:05;16.10;69.80
52295;DHT22;38243;53.212;6.574;2023-03-01T03:20:31;16.30;69.90
52295;DHT22;38243;53.212;6.574;2023-03-01T03:22:58;16.30;69.90
52295;DHT22;38243;53.212;6.574;2023-03-01T03:25:25;16.30;69.90
52295;DHT22;38243;53.212;6.574;2023-03-01T03:27:52;16.30;70.00
52295;DHT22;38243;53.212;6.574;2023-03-01T03:30:23;16.30;69.90
52295;DHT22;38243;53.212;6.574;2023-03-01T03:32:50;16.30;69.80
52295;DHT22;38243;53.212;6.574;2023-03-01T03:35:24;16.30;69.70
52295;DHT22;38243;53.212;6.574;2023-03-01T03:37:51;16.30;69.70
52295;DHT22;38243;53.212;6.574;2023-03-01T03:40:39;16.30;69.90
52295;DHT22;38243;53.212;6.574;2023-03-01T03:43:08;16.30;69.90
52295;DHT22;38243;53.212;6.574;2023-03-01T03:45:34;16.30;69.90
52295;DHT22;38243;53.212;6.574;2023-03-01T03:48:01;16.30;69.90
52295;DHT22;38243;53.212;6.574;2023-03-01T03:50:27;16.30;69.90
52295;DHT22;38243;53.212;6.574;2023-03-01T03:52:53;16.30;70.00
52295;DHT22;38243;53.212;6.574;2023-03-01T03:55:19;16.30;70.00
52295;DHT22;38243;53.212;6.574;2023-03-01T03:57:46;16.20;70.00
52295;DHT22;38243;53.212;6.574;2023-03-01T04:00:19;16.30;70.00
52295;DHT22;38243;53.212;6.574;2023-03-01T04:02:46;16.20;70.00
52295;DHT22;38243;53.212;6.574;2023-03-01T04:05:14;16.20;70.00
52295;DHT22;38243;53.212;6.574;2023-03-01T04:07:41;16.20;70.00
52295;DHT22;38243;53.212;6.574;2023-03-01T04:10:10;16.20;70.10
52295;DHT22;38243;53.212;6.574;2023-03-01T04:12:36;16.20;70.10
52295;DHT22;38243;53.212;6.574;2023-03-01T04:15:07;16.20;70.00
52295;DHT22;38243;53.212;6.574;2023-03-01T04:17:43;16.20;70.10
52295;DHT22;38243;53.212;6.574;2023-03-01T04:20:10;16.20;70.10
52295;DHT22;38243;53.212;6.574;2023-03-01T04:22:38;16.20;70.10
52295;DHT22;38243;53.212;6.574;2023-03-01T04:25:04;16.20;70.00
52295;DHT22;38243;53.212;6.574;2023-03-01T04:27:35;16.20;70.20
52295;DHT22;38243;53.212;6.574;2023-03-01T04:30:03;16.20;70.20
52295;DHT22;38243;53.212;6.574;2023-03-01T04:32:29;16.20;70.20
52295;DHT22;38243;53.212;6.574;2023-03-01T04:34:55;16.10;70.10
52295;DHT22;38243;53.212;6.574;2023-03-01T04:37:21;16.10;70.20
52295;DHT22;38243;53.212;6.574;2023-03-01T04:39:47;16.10;70.20
52295;DHT22;38243;53.212;6.574;2023-03-01T04:42:14;16.10;70.00
52295;DHT22;38243;53.212;6.574;2023-03-01T04:44:40;16.10;70.00
52295;DHT22;38243;53.212;6.574;2023-03-01T04:47:05;16.10;70.00
52295;DHT22;38243;53.212;6.574;2023-03-01T04:49:31;16.10;70.00
52295;DHT22;38243;53.212;6.574;2023-03-01T04:51:57;16.10;70.20
52295;DHT22;38243;53.212;6.574;2023-03-01T04:54:30;16.10;70.20
52295;DHT22;38243;53.212;6.574;2023-03-01T04:56:57;16.10;70.10
52295;DHT22;38243;53.212;6.574;2023-03-01T04:59:23;16.10;70.00
52295;DHT22;38243;53.212;6.574;2023-03-01T05:01:50;16.10;70.00
52295;DHT22;38243;53.212;6.574;2023-03-01T05:04:16;16.10;70.10
52295;DHT22;38243;53.212;6.574;2023-03-01T05:06:43;16.10;70.10
52295;DHT22;38243;53.212;6.574;2023-03-01T05:09:09;16.10;70.00
52295;DHT22;38243;53.212;6.574;2023-03-01T05:11:37;16.10;70.00
52295;DHT22;38243;53.212;6.574;2023-03-01T05:14:04;16.10;70.20
52295;DHT22;38243;53.212;6.574;2023-03-01T05:16:30;16.00;70.00
52295;DHT22;38243;53.212;6.574;2023-03-01T05:18:57;16.00;70.10
52295;DHT22;38243;53.212;6.574;2023-03-01T05:21:23;16.00;70.00
52295;DHT22;38243;53.212;6.574;2023-03-01T05:23:49;16.00;70.00
52295;DHT22;38243;53.212;6.574;2023-03-01T05:26:16;16.00;70.10
52295;DHT22;38243;53.212;6.574;2023-03-01T05:28:43;16.00;70.10
52295;DHT22;38243;53.212;6.574;2023-03-01T05:31:09;16.00;70.00
52295;DHT22;38243;53.212;6.574;2023-03-01T05:33:39;16.00;70.10
52295;DHT22;38243;53.212;6.574;2023-03-01T05:36:07;16.00;70.10
52295;DHT22;38243;53.212;6.574;2023-03-01T05:38:33;16.00;70.10
52295;DHT22;38243;53.212;6.574;2023-03-01T05:40:59;16.00;70.20
52295;DHT22;38243;53.212;6.574;2023-03-01T05:43:25;16.00;70.20
52295;DHT22;38243;53.212;6.574;2023-03-01T05:45:51;16.00;70.20
52295;DHT22;38243;53.212;6.574;2023-03-01T05:48:17;16.00;70.20
52295;DHT22;38243;53.212;6.574;2023-03-01T05:50:45;16.00;70.20
52295;DHT22;38243;53.212;6.574;2023-03-01T05:53:18;16.00;70.30
52295;DHT22;38243;53.212;6.574;2023-03-01T05:55:45;15.90;70.20
52295;DHT22;38243;53.212;6.574;2023-03-01T05:58:18;15.90;70.20
52295;DHT22;38243;53.212;6.574;2023-03-01T06:00:45;16.00;70.20
52295;DHT22;38243;53.212;6.574;2023-03-01T06:03:12;15.90;70.20
52295;DHT22;38243;53.212;6.574;2023-03-01T06:05:39;15.90;70.20
52295;DHT22;38243;53.212;6.574;2023-03-01T06:08:05;15.90;70.10
52295;DHT22;38243;53.212;6.574;2023-03-01T06:10:31;15.90;70.10
52295;DHT22;38243;53.212;6.574;2023-03-01T06:12:57;15.90;70.20
52295;DHT22;38243;53.212;6.574;2023-03-01T06:15:24;15.90;70.30
52295;DHT22;38243;53.212;6.574;2023-03-01T06:17:50;15.90;70.20
52295;DHT22;38243;53.212;6.574;2023-03-01T06:20:22;15.90;70.20
52295;DHT22;38243;53.212;6.574;2023-03-01T06:22:48;15.90;70.20
52295;DHT22;38243;53.212;6.574;2023-03-01T06:25:17;15.90;70.20
52295;DHT22;38243;53.212;6.574;2023-03-01T06:27:43;15.90;70.20
52295;DHT22;38243;53.212;6.574;2023-03-01T06:30:11;15.90;70.20
52295;DHT22;38243;53.212;6.574;2023-03-01T06:32:38;15.90;70.20
52295;DHT22;38243;53.212;6.574;2023-03-01T06:35:09;15.90;70.20
52295;DHT22;38243;53.212;6.574;2023-03-01T06:37:35;15.90;70.20
52295;DHT22;38243;53.212;6.574;2023-03-01T06:40:02;15.80;70.20
52295;DHT22;38243;53.212;6.574;2023-03-01T06:42:39;15.90;70.40
52295;DHT22;38243;53.212;6.574;2023-03-01T06:45:07;15.90;70.30
52295;DHT22;38243;53.212;6.574;2023-03-01T06:47:34;15.90;70.40
52295;DHT22;38243;53.212;6.574;2023-03-01T06:50:01;15.90;70.50
52295;DHT22;38243;53.212;6.574;2023-03-01T06:52:27;15.90;70.50
52295;DHT22;38243;53.212;6.574;2023-03-01T06:54:53;15.90;70.50
52295;DHT22;38243;53.212;6.574;2023-03-01T06:57:18;15.90;70.60
52295;DHT22;38243;53.212;6.574;2023-03-01T06:59:44;15.90;70.60
52295;DHT22;38243;53.212;6.574;2023-03-01T07:02:14;15.90;71.00
52295;DHT22;38243;53.212;6.574;2023-03-01T07:04:40;16.00;71.10
52295;DHT22;38243;53.212;6.574;2023-03-01T07:07:06;16.00;71.00
52295;DHT22;38243;53.212;6.574;2023-03-01T07:09:32;16.00;71.10
52295;DHT22;38243;53.212;6.574;2023-03-01T07:11:58;16.00;71.00
52295;DHT22;38243;53.212;6.574;2023-03-01T07:14:24;16.00;70.10
52295;DHT22;38243;53.212;6.574;2023-03-01T07:16:54;16.00;69.70
52295;DHT22;38243;53.212;6.574;2023-03-01T07:19:20;16.00;69.60
52295;DHT22;38243;53.212;6.574;2023-03-01T07:21:46;15.90;69.40
52295;DHT22;38243;53.212;6.574;2023-03-01T07:24:12;15.90;69.30
52295;DHT22;38243;53.212;6.574;2023-03-01T07:26:38;15.90;69.30
52295;DHT22;38243;53.212;6.574;2023-03-01T07:29:05;15.90;69.30
52295;DHT22;38243;53.212;6.574;2023-03-01T07:31:31;15.90;69.10
52295;DHT22;38243;53.212;6.574;2023-03-01T07:33:57;16.00;69.00
52295;DHT22;38243;53.212;6.574;2023-03-01T07:36:23;16.00;68.90
52295;DHT22;38243;53.212;6.574;2023-03-01T07:38:50;16.00;68.70
52295;DHT22;38243;53.212;6.574;2023-03-01T07:41:16;16.00;68.50
52295;DHT22;38243;53.212;6.574;2023-03-01T07:43:42;16.00;68.40
52295;DHT22;38243;53.212;6.574;2023-03-01T07:46:08;16.00;68.20
52295;DHT22;38243;53.212;6.574;2023-03-01T07:48:33;16.00;68.10
52295;DHT22;38243;53.212;6.574;2023-03-01T07:51:05;16.10;68.10
52295;DHT22;38243;53.212;6.574;2023-03-01T07:53:31;16.10;68.00
52295;DHT22;38243;53.212;6.574;2023-03-01T07:56:12;16.10;67.90
52295;DHT22;38243;53.212;6.574;2023-03-01T07:58:41;16.10;68.00
52295;DHT22;38243;53.212;6.574;2023-03-01T08:01:09;16.10;68.10
52295;DHT22;38243;53.212;6.574;2023-03-01T08:03:36;16.20;68.10
52295;DHT22;38243;53.212;6.574;2023-03-01T08:06:04;16.20;68.00
52295;DHT22;38243;53.212;6.574;2023-03-01T08:08:30;16.30;67.90
52295;DHT22;38243;53.212;6.574;2023-03-01T08:10:57;16.30;68.00
52295;DHT22;38243;53.212;6.574;2023-03-01T08:13:24;16.40;68.30
52295;DHT22;38243;53.212;6.574;2023-03-01T08:15:50;16.80;68.90
52295;DHT22;38243;53.212;6.574;2023-03-01T08:18:18;16.50;69.50
52295;DHT22;38243;53.212;6.574;2023-03-01T08:20:44;16.60;69.00
52295;DHT22;38243;53.212;6.574;2023-03-01T08:23:10;16.60;69.00
52295;DHT22;38243;53.212;6.574;2023-03-01T08:25:36;16.70;69.00
52295;DHT22;38243;53.212;6.574;2023-03-01T08:28:02;16.70;68.90
52295;DHT22;38243;53.212;6.574;2023-03-01T08:30:28;16.80;68.90
52295;DHT22;38243;53.212;6.574;2023-03-01T08:32:54;16.80;68.80
52295;DHT22;38243;53.212;6.574;2023-03-01T08:35:20;16.90;68.90
52295;DHT22;38243;53.212;6.574;2023-03-01T08:37:46;16.90;68.60
52295;DHT22;38243;53.212;6.574;2023-03-01T08:40:12;17.00;68.70
52295;DHT22;38243;53.212;6.574;2023-03-01T08:42:40;17.00;68.30
52295;DHT22;38243;53.212;6.574;2023-03-01T08:45:07;17.00;68.20
52295;DHT22;38243;53.212;6.574;2023-03-01T08:47:33;17.10;68.30
52295;DHT22;38243;53.212;6.574;2023-03-01T08:50:00;17.10;65.80
52295;DHT22;38243;53.212;6.574;2023-03-01T08:52:26;16.90;63.80
52295;DHT22;38243;53.212;6.574;2023-03-01T08:54:52;16.80;63.10
52295;DHT22;38243;53.212;6.574;2023-03-01T08:57:18;16.70;62.50
52295;DHT22;38243;53.212;6.574;2023-03-01T08:59:44;16.70;62.30
52295;DHT22;38243;53.212;6.574;2023-03-01T09:02:15;16.60;62.60
52295;DHT22;38243;53.212;6.574;2023-03-01T09:04:41;16.50;62.00
52295;DHT22;38243;53.212;6.574;2023-03-01T09:07:08;16.40;62.10
52295;DHT22;38243;53.212;6.574;2023-03-01T09:09:34;16.30;61.80
52295;DHT22;38243;53.212;6.574;2023-03-01T09:12:00;16.30;61.90
52295;DHT22;38243;53.212;6.574;2023-03-01T09:14:26;16.20;62.40
52295;DHT22;38243;53.212;6.574;2023-03-01T09:16:52;16.10;62.40
52295;DHT22;38243;53.212;6.574;2023-03-01T09:19:18;16.20;64.50
52295;DHT22;38243;53.212;6.574;2023-03-01T09:21:44;16.20;63.30
52295;DHT22;38243;53.212;6.574;2023-03-01T09:24:23;16.20;63.30
52295;DHT22;38243;53.212;6.574;2023-03-01T09:26:49;16.20;62.50
52295;DHT22;38243;53.212;6.574;2023-03-01T09:29:16;17.10;63.20
52295;DHT22;38243;53.212;6.574;2023-03-01T09:31:42;16.20;62.90
52295;DHT22;38243;53.212;6.574;2023-03-01T09:34:08;16.20;61.80
52295;DHT22;38243;53.212;6.574;2023-03-01T09:36:34;16.30;62.60
52295;DHT22;38243;53.212;6.574;2023-03-01T09:39:01;16.20;61.90
52295;DHT22;38243;53.212;6.574;2023-03-01T09:41:36;16.30;62.30
52295;DHT22;38243;53.212;6.574;2023-03-01T09:46:48;16.20;60.70
52295;DHT22;38243;53.212;6.574;2023-03-01T09:49:23;16.20;61.90
52295;DHT22;38243;53.212;6.574;2023-03-01T09:52:15;16.30;62.50
52295;DHT22;38243;53.212;6.574;2023-03-01T09:54:45;16.30;62.00
52295;DHT22;38243;53.212;6.574;2023-03-01T10:02:45;16.40;61.70
52295;DHT22;38243;53.212;6.574;2023-03-01T10:08:27;16.40;61.00
52295;DHT22;38243;53.212;6.574;2023-03-01T10:10:57;16.40;60.00
52295;DHT22;38243;53.212;6.574;2023-03-01T10:16:17;16.40;64.50
52295;DHT22;38243;53.212;6.574;2023-03-01T10:18:51;16.40;65.30
52295;DHT22;38243;53.212;6.574;2023-03-01T10:21:20;16.50;66.00
52295;DHT22;38243;53.212;6.574;2023-03-01T10:23:46;16.50;65.60
52295;DHT22;38243;53.212;6.574;2023-03-01T10:26:38;16.60;64.70
52295;DHT22;38243;53.212;6.574;2023-03-01T10:29:11;16.60;64.90
52295;DHT22;38243;53.212;6.574;2023-03-01T10:31:47;16.70;65.20
52295;DHT22;38243;53.212;6.574;2023-03-01T10:34:20;16.70;65.50
52295;DHT22;38243;53.212;6.574;2023-03-01T10:36:51;16.80;62.20
52295;DHT22;38243;53.212;6.574;2023-03-01T10:39:23;16.80;63.20
52295;DHT22;38243;53.212;6.574;2023-03-01T10:42:01;16.70;61.40
52295;DHT22;38243;53.212;6.574;2023-03-01T10:44:48;16.70;61.10
52295;DHT22;38243;53.212;6.574;2023-03-01T10:47:17;16.70;62.20
52295;DHT22;38243;53.212;6.574;2023-03-01T10:50:08;16.70;60.60
52295;DHT22;38243;53.212;6.574;2023-03-01T10:52:56;16.70;62.50
52295;DHT22;38243;53.212;6.574;2023-03-01T10:55:36;16.70;61.80
52295;DHT22;38243;53.212;6.574;2023-03-01T11:00:57;16.70;62.60
52295;DHT22;38243;53.212;6.574;2023-03-01T11:08:46;16.80;63.10
52295;DHT22;38243;53.212;6.574;2023-03-01T11:11:14;16.90;64.00
52295;DHT22;38243;53.212;6.574;2023-03-01T11:13:57;16.90;63.30
52295;DHT22;38243;53.212;6.574;2023-03-01T11:16:37;16.90;63.10
52295;DHT22;38243;53.212;6.574;2023-03-01T11:24:14;17.00;62.20
52295;DHT22;38243;53.212;6.574;2023-03-01T11:26:45;17.00;61.80
52295;DHT22;38243;53.212;6.574;2023-03-01T11:29:35;17.00;61.50
52295;DHT22;38243;53.212;6.574;2023-03-01T11:32:06;17.00;60.90
52295;DHT22;38243;53.212;6.574;2023-03-01T11:34:47;17.00;60.30
52295;DHT22;38243;53.212;6.574;2023-03-01T11:40:37;17.00;60.30
52295;DHT22;38243;53.212;6.574;2023-03-01T11:46:24;16.90;59.00
52295;DHT22;38243;53.212;6.574;2023-03-01T11:56:42;17.10;61.00
52295;DHT22;38243;53.212;6.574;2023-03-01T12:02:35;17.10;61.10
52295;DHT22;38243;53.212;6.574;2023-03-01T12:08:07;17.20;61.30
52295;DHT22;38243;53.212;6.574;2023-03-01T12:22:43;17.30;60.90
52295;DHT22;38243;53.212;6.574;2023-03-01T12:43:54;17.50;60.10
52295;DHT22;38243;53.212;6.574;2023-03-01T12:46:28;17.50;60.10
52295;DHT22;38243;53.212;6.574;2023-03-01T12:49:16;17.60;60.20
52295;DHT22;38243;53.212;6.574;2023-03-01T12:51:58;17.60;60.30
52295;DHT22;38243;53.212;6.574;2023-03-01T12:54:31;17.60;60.20
52295;DHT22;38243;53.212;6.574;2023-03-01T12:57:07;17.60;60.20
52295;DHT22;38243;53.212;6.574;2023-03-01T12:59:39;17.60;60.20
52295;DHT22;38243;53.212;6.574;2023-03-01T13:02:14;17.60;59.80
52295;DHT22;38243;53.212;6.574;2023-03-01T13:04:56;17.70;59.80
52295;DHT22;38243;53.212;6.574;2023-03-01T13:07:39;17.70;59.60
52295;DHT22;38243;53.212;6.574;2023-03-01T13:10:58;17.70;59.70
52295;DHT22;38243;53.212;6.574;2023-03-01T13:13:22;17.70;59.70
52295;DHT22;38243;53.212;6.574;2023-03-01T13:15:49;17.70;59.70
52295;DHT22;38243;53.212;6.574;2023-03-01T13:26:05;17.70;59.50
52295;DHT22;38243;53.212;6.574;2023-03-01T13:33:54;17.80;59.60
52295;DHT22;38243;53.212;6.574;2023-03-01T13:39:00;17.70;59.40
52295;DHT22;38243;53.212;6.574;2023-03-01T13:46:45;17.80;59.10
52295;DHT22;38243;53.212;6.574;2023-03-01T13:49:16;17.80;59.10
52295;DHT22;38243;53.212;6.574;2023-03-01T13:51:47;17.80;59.20
52295;DHT22;38243;53.212;6.574;2023-03-01T13:54:15;17.90;59.20
52295;DHT22;38243;53.212;6.574;2023-03-01T13:56:42;17.90;59.20
52295;DHT22;38243;53.212;6.574;2023-03-01T13:59:18;17.90;59.00
52295;DHT22;38243;53.212;6.574;2023-03-01T14:01:55;17.90;58.90
52295;DHT22;38243;53.212;6.574;2023-03-01T14:04:24;17.90;59.00
52295;DHT22;38243;53.212;6.574;2023-03-01T14:06:51;17.90;59.00
52295;DHT22;38243;53.212;6.574;2023-03-01T14:09:24;17.90;58.90
52295;DHT22;38243;53.212;6.574;2023-03-01T14:12:15;17.90;59.00
52295;DHT22;38243;53.212;6.574;2023-03-01T14:20:23;17.90;59.30
52295;DHT22;38243;53.212;6.574;2023-03-01T14:22:55;18.00;59.50
52295;DHT22;38243;53.212;6.574;2023-03-01T14:25:31;17.90;59.40
52295;DHT22;38243;53.212;6.574;2023-03-01T14:28:24;17.90;59.00
52295;DHT22;38243;53.212;6.574;2023-03-01T14:30:54;17.90;59.50
52295;DHT22;38243;53.212;6.574;2023-03-01T14:33:24;17.90;59.50
52295;DHT22;38243;53.212;6.574;2023-03-01T14:36:06;17.90;59.50
52295;DHT22;38243;53.212;6.574;2023-03-01T14:38:38;17.90;59.50
52295;DHT22;38243;53.212;6.574;2023-03-01T14:41:08;17.90;59.70
52295;DHT22;38243;53.212;6.574;2023-03-01T14:43:35;17.90;60.60
52295;DHT22;38243;53.212;6.574;2023-03-01T14:46:02;17.90;60.60
52295;DHT22;38243;53.212;6.574;2023-03-01T14:48:28;17.90;61.00
52295;DHT22;38243;53.212;6.574;2023-03-01T14:50:55;17.90;61.00
52295;DHT22;38243;53.212;6.574;2023-03-01T14:53:25;17.80;60.90
52295;DHT22;38243;53.212;6.574;2023-03-01T14:55:56;17.80;61.60
52295;DHT22;38243;53.212;6.574;2023-03-01T14:58:26;17.90;61.00
52295;DHT22;38243;53.212;6.574;2023-03-01T15:00:57;17.90;61.20
52295;DHT22;38243;53.212;6.574;2023-03-01T15:06:03;17.80;61.10
52295;DHT22;38243;53.212;6.574;2023-03-01T15:08:31;17.80;61.00
52295;DHT22;38243;53.212;6.574;2023-03-01T15:11:03;17.90;61.20
52295;DHT22;38243;53.212;6.574;2023-03-01T15:13:31;17.80;61.90
52295;DHT22;38243;53.212;6.574;2023-03-01T15:16:12;17.80;62.60
52295;DHT22;38243;53.212;6.574;2023-03-01T15:19:03;17.90;62.70
52295;DHT22;38243;53.212;6.574;2023-03-01T15:21:34;17.90;62.70
52295;DHT22;38243;53.212;6.574;2023-03-01T15:24:14;17.80;63.30
52295;DHT22;38243;53.212;6.574;2023-03-01T15:26:58;17.80;62.60
52295;DHT22;38243;53.212;6.574;2023-03-01T15:29:31;17.90;63.20
52295;DHT22;38243;53.212;6.574;2023-03-01T15:34:44;17.90;63.60
52295;DHT22;38243;53.212;6.574;2023-03-01T15:40:00;17.80;63.10
52295;DHT22;38243;53.212;6.574;2023-03-01T15:47:51;17.80;63.50
52295;DHT22;38243;53.212;6.574;2023-03-01T15:52:49;17.80;64.60
52295;DHT22;38243;53.212;6.574;2023-03-01T15:55:24;17.80;65.00
52295;DHT22;38243;53.212;6.574;2023-03-01T15:58:12;17.80;65.00
52295;DHT22;38243;53.212;6.574;2023-03-01T16:00:38;17.80;65.00
52295;DHT22;38243;53.212;6.574;2023-03-01T16:03:05;17.80;65.00
52295;DHT22;38243;53.212;6.574;2023-03-01T16:05:33;17.80;65.30
52295;DHT22;38243;53.212;6.574;2023-03-01T16:08:00;17.80;65.00
52295;DHT22;38243;53.212;6.574;2023-03-01T16:10:27;17.80;65.10
52295;DHT22;38243;53.212;6.574;2023-03-01T16:12:53;17.80;65.10
52295;DHT22;38243;53.212;6.574;2023-03-01T16:15:21;17.80;65.20
52295;DHT22;38243;53.212;6.574;2023-03-01T16:17:48;17.80;65.20
52295;DHT22;38243;53.212;6.574;2023-03-01T16:20:14;17.80;65.00
52295;DHT22;38243;53.212;6.574;2023-03-01T16:22:44;17.80;65.10
52295;DHT22;38243;53.212;6.574;2023-03-01T16:25:12;17.80;65.00
52295;DHT22;38243;53.212;6.574;2023-03-01T16:27:38;17.80;65.00
52295;DHT22;38243;53.212;6.574;2023-03-01T16:30:07;17.80;65.00
52295;DHT22;38243;53.212;6.574;2023-03-01T16:32:38;17.80;65.00
52295;DHT22;38243;53.212;6.574;2023-03-01T16:35:05;17.80;65.20
52295;DHT22;38243;53.212;6.574;2023-03-01T16:37:33;17.80;65.50
52295;DHT22;38243;53.212;6.574;2023-03-01T16:39:59;17.80;65.60
52295;DHT22;38243;53.212;6.574;2023-03-01T16:42:25;17.80;65.80
52295;DHT22;38243;53.212;6.574;2023-03-01T16:44:57;17.70;65.70
52295;DHT22;38243;53.212;6.574;2023-03-01T16:47:23;17.80;65.80
52295;DHT22;38243;53.212;6.574;2023-03-01T16:49:52;17.70;66.00
52295;DHT22;38243;53.212;6.574;2023-03-01T16:52:19;17.80;66.30
52295;DHT22;38243;53.212;6.574;2023-03-01T16:54:44;17.80;66.10
52295;DHT22;38243;53.212;6.574;2023-03-01T16:57:10;17.70;65.90
52295;DHT22;38243;53.212;6.574;2023-03-01T16:59:36;17.80;65.90
52295;DHT22;38243;53.212;6.574;2023-03-01T17:02:03;17.80;65.80
52295;DHT22;38243;53.212;6.574;2023-03-01T17:04:31;17.80;65.70
52295;DHT22;38243;53.212;6.574;2023-03-01T17:06:57;17.80;65.60
52295;DHT22;38243;53.212;6.574;2023-03-01T17:09:23;17.80;65.70
52295;DHT22;38243;53.212;6.574;2023-03-01T17:11:49;17.80;65.70
52295;DHT22;38243;53.212;6.574;2023-03-01T17:14:15;17.80;65.80
52295;DHT22;38243;53.212;6.574;2023-03-01T17:16:42;17.80;65.80
52295;DHT22;38243;53.212;6.574;2023-03-01T17:19:09;17.80;65.80
52295;DHT22;38243;53.212;6.574;2023-03-01T17:21:35;17.70;65.60
52295;DHT22;38243;53.212;6.574;2023-03-01T17:24:00;17.70;65.70
52295;DHT22;38243;53.212;6.574;2023-03-01T17:26:27;17.70;65.70
52295;DHT22;38243;53.212;6.574;2023-03-01T17:28:56;17.80;65.60
52295;DHT22;38243;53.212;6.574;2023-03-01T17:31:23;17.70;65.60
52295;DHT22;38243;53.212;6.574;2023-03-01T17:33:49;17.70;65.60
52295;DHT22;38243;53.212;6.574;2023-03-01T17:36:17;17.60;65.50
52295;DHT22;38243;53.212;6.574;2023-03-01T17:38:42;17.60;65.50
52295;DHT22;38243;53.212;6.574;2023-03-01T17:41:08;17.60;65.50
52295;DHT22;38243;53.212;6.574;2023-03-01T17:43:36;17.60;65.50
52295;DHT22;38243;53.212;6.574;2023-03-01T17:46:02;17.60;65.50
52295;DHT22;38243;53.212;6.574;2023-03-01T17:48:28;17.60;65.40
52295;DHT22;38243;53.212;6.574;2023-03-01T17:50:54;17.50;65.50
52295;DHT22;38243;53.212;6.574;2023-03-01T17:53:20;17.50;65.60